Time;durP1;ratioP1;P1;durP2;ratioP2;P2;SDS_P1;SDS_P2;PMS_P1;PMS_P2;Temp;Humidity;BMP_temperature;BMP_pressure;BME280_temperature;BME280_humidity;BME280_pressure;Samples;Min_cycle;Max_cycle;Signal;HPM_P1;HPM_P2
2022/03/20 00:00:05;;;;;;;27.23;15.35;;;2.90;38.00;;;;;;5083411;27;48129;-65
2022/03/20 00:02:33;;;;;;;26.80;13.93;;;2.90;38.30;;;;;;5082541;27;46549;-64
2022/03/20 00:05:01;;;;;;;29.55;15.20;;;2.90;38.40;;;;;;5083429;27;46392;-64
2022/03/20 00:07:26;;;;;;;25.95;15.40;;;2.90;38.40;;;;;;5092014;27;46305;-64
2022/03/20 00:09:52;;;;;;;33.03;17.13;;;2.90;38.40;;;;;;5082876;27;47263;-64
2022/03/20 00:12:18;;;;;;;26.00;15.30;;;2.80;38.40;;;;;;5083791;27;46485;-63
2022/03/20 00:14:44;;;;;;;26.60;15.40;;;2.80;38.60;;;;;;5082198;27;46310;-63
2022/03/20 00:17:10;;;;;;;31.87;17.13;;;2.70;38.60;;;;;;5082727;27;46415;-64
2022/03/20 00:19:37;;;;;;;26.83;15.83;;;2.70;38.50;;;;;;5082314;27;48967;-64
2022/03/20 00:22:04;;;;;;;27.10;15.80;;;2.60;38.50;;;;;;5080785;27;46738;-65
2022/03/20 00:24:29;;;;;;;26.80;14.50;;;2.60;38.50;;;;;;5081134;27;46317;-65
2022/03/20 00:26:58;;;;;;;33.07;16.47;;;2.60;38.60;;;;;;5083454;27;46762;-65
2022/03/20 00:29:28;;;;;;;28.42;15.48;;;2.50;38.50;;;;;;5072438;27;47809;-63
2022/03/20 00:31:54;;;;;;;30.50;15.50;;;2.50;38.70;;;;;;5074055;27;46641;-62
2022/03/20 00:34:20;;;;;;;27.05;15.35;;;2.50;38.70;;;;;;5081895;27;45902;-63
2022/03/20 00:36:46;;;;;;;29.48;15.52;;;2.50;38.80;;;;;;5083177;27;46400;-62
2022/03/20 00:39:14;;;;;;;29.40;15.80;;;2.50;38.70;;;;;;5072024;27;47986;-63
2022/03/20 00:41:40;;;;;;;35.78;17.70;;;2.40;38.80;;;;;;5082511;27;46347;-64
2022/03/20 00:44:06;;;;;;;25.97;14.53;;;2.40;39.20;;;;;;5082663;27;46418;-65
2022/03/20 00:46:32;;;;;;;30.40;16.70;;;2.40;39.50;;;;;;5082499;27;46366;-62
2022/03/20 00:48:58;;;;;;;30.73;15.88;;;2.40;39.40;;;;;;5083062;27;48035;-64
2022/03/20 00:51:23;;;;;;;28.20;16.23;;;2.30;39.30;;;;;;5072738;27;46460;-64
2022/03/20 00:53:49;;;;;;;33.17;16.10;;;2.30;39.30;;;;;;5082545;27;46374;-63
2022/03/20 00:56:15;;;;;;;31.23;16.43;;;2.30;39.40;;;;;;5083016;27;46344;-64
2022/03/20 00:58:40;;;;;;;34.63;17.37;;;2.20;39.50;;;;;;5068503;27;48857;-64
2022/03/20 01:01:10;;;;;;;41.87;16.90;;;2.10;39.40;;;;;;5082434;27;46375;-64
2022/03/20 01:03:36;;;;;;;30.45;15.48;;;2.10;39.60;;;;;;5082054;27;46460;-63
2022/03/20 01:06:02;;;;;;;29.48;15.43;;;2.10;39.70;;;;;;5095286;27;46412;-63
2022/03/20 01:08:27;;;;;;;32.93;16.40;;;2.00;39.60;;;;;;5072609;27;46450;-64
2022/03/20 01:10:56;;;;;;;27.17;16.60;;;2.00;39.80;;;;;;5081370;27;46378;-63
2022/03/20 01:13:23;;;;;;;30.58;16.17;;;1.90;39.70;;;;;;5073174;27;46289;-65
2022/03/20 01:15:49;;;;;;;29.35;16.00;;;1.90;39.80;;;;;;5073695;27;46462;-63
2022/03/20 01:18:15;;;;;;;25.00;15.40;;;1.90;39.90;;;;;;5094417;27;47144;-62
2022/03/20 01:20:40;;;;;;;29.43;16.97;;;1.90;39.80;;;;;;5081208;27;45948;-65
2022/03/20 01:23:06;;;;;;;28.23;16.00;;;1.90;40.00;;;;;;5081132;27;46456;-62
2022/03/20 01:25:32;;;;;;;30.60;16.73;;;1.90;39.90;;;;;;5082070;27;46505;-64
2022/03/20 01:27:58;;;;;;;36.63;17.67;;;1.90;40.00;;;;;;5080777;27;47729;-63
2022/03/20 01:30:23;;;;;;;32.00;16.80;;;1.90;40.10;;;;;;5085057;27;46414;-64
2022/03/20 01:32:49;;;;;;;30.97;17.30;;;1.80;40.20;;;;;;5081978;27;46349;-64
2022/03/20 01:35:15;;;;;;;31.00;17.60;;;1.70;40.40;;;;;;5083058;27;46274;-64
2022/03/20 01:37:43;;;;;;;31.37;18.40;;;1.70;40.60;;;;;;5082512;27;46551;-63
2022/03/20 01:40:10;;;;;;;33.17;18.00;;;1.60;40.70;;;;;;5081557;27;46552;-63
2022/03/20 01:42:38;;;;;;;30.95;16.50;;;1.60;41.00;;;;;;5081678;27;46572;-63
2022/03/20 01:45:16;;;;;;;31.15;15.90;;;1.50;41.20;;;;;;5082312;27;46321;-63
2022/03/20 01:47:42;;;;;;;33.85;17.90;;;1.50;41.40;;;;;;5088110;27;47165;-64
2022/03/20 01:50:08;;;;;;;29.95;18.40;;;1.40;41.30;;;;;;5080379;27;46379;-63
2022/03/20 01:52:34;;;;;;;31.35;17.17;;;1.30;41.30;;;;;;5070519;27;46226;-62
2022/03/20 01:55:01;;;;;;;31.70;17.30;;;1.30;41.50;;;;;;5080421;27;46326;-63
2022/03/20 01:57:29;;;;;;;26.98;16.83;;;1.30;41.60;;;;;;5078232;27;49042;-64
2022/03/20 01:59:55;;;;;;;31.77;18.13;;;1.20;41.70;;;;;;5076686;27;46429;-63
2022/03/20 02:02:22;;;;;;;33.40;17.93;;;1.10;41.70;;;;;;5083806;27;46280;-62
2022/03/20 02:04:47;;;;;;;27.77;15.43;;;1.10;41.90;;;;;;5082574;27;46362;-62
2022/03/20 02:07:14;;;;;;;28.40;15.33;;;1.00;42.20;;;;;;5082463;27;48985;-62
2022/03/20 02:09:41;;;;;;;30.30;16.67;;;1.00;42.20;;;;;;5091355;27;46437;-63
2022/03/20 02:12:07;;;;;;;31.17;17.70;;;1.00;42.20;;;;;;5084083;27;46403;-62
2022/03/20 02:14:34;;;;;;;30.00;16.13;;;1.00;42.20;;;;;;5085670;27;46023;-63
2022/03/20 02:17:01;;;;;;;36.88;18.50;;;0.90;42.10;;;;;;5085107;27;47811;-63
2022/03/20 02:19:27;;;;;;;31.80;16.35;;;1.00;42.20;;;;;;5086264;27;46519;-63
2022/03/20 02:21:54;;;;;;;28.98;16.05;;;1.00;42.30;;;;;;5084734;27;46371;-63
2022/03/20 02:24:39;;;;;;;37.00;16.98;;;1.00;42.20;;;;;;5083621;27;45834;-63
2022/03/20 02:27:25;;;;;;;36.65;18.83;;;1.00;42.30;;;;;;5079799;27;47915;-63
2022/03/20 02:30:00;;;;;;;32.00;17.00;;;1.00;42.40;;;;;;5091111;27;46427;-62
2022/03/20 02:32:31;;;;;;;31.77;17.42;;;1.00;42.30;;;;;;5080841;27;46400;-63
2022/03/20 02:35:05;;;;;;;34.08;16.83;;;0.90;42.20;;;;;;5080914;27;46444;-64
2022/03/20 02:37:32;;;;;;;30.67;17.00;;;0.90;42.50;;;;;;5096057;27;46153;-63
2022/03/20 02:40:01;;;;;;;31.65;16.85;;;0.90;42.50;;;;;;5083516;27;46455;-63
2022/03/20 02:42:27;;;;;;;30.20;16.35;;;0.90;42.60;;;;;;5083973;27;46495;-62
2022/03/20 02:44:57;;;;;;;32.08;17.38;;;0.80;42.70;;;;;;5095712;27;46043;-63
2022/03/20 02:47:25;;;;;;;31.58;17.52;;;0.80;42.80;;;;;;5082407;27;48049;-63
2022/03/20 02:49:54;;;;;;;31.73;15.18;;;0.80;42.80;;;;;;5076170;27;46427;-63
2022/03/20 02:52:28;;;;;;;37.20;16.58;;;0.80;42.80;;;;;;5074986;27;46274;-62
2022/03/20 02:54:55;;;;;;;37.55;16.33;;;0.80;42.90;;;;;;5076183;27;46544;-62
2022/03/20 02:57:21;;;;;;;30.88;17.60;;;0.90;43.10;;;;;;5084672;27;48909;-64
2022/03/20 02:59:47;;;;;;;36.23;18.97;;;0.90;43.30;;;;;;5076517;27;46396;-64
2022/03/20 03:02:13;;;;;;;29.95;16.83;;;0.90;43.50;;;;;;5083675;27;46348;-65
2022/03/20 03:04:41;;;;;;;31.10;17.03;;;1.00;43.70;;;;;;5085469;27;46512;-65
2022/03/20 03:07:10;;;;;;;33.00;17.70;;;1.00;44.20;;;;;;5082555;27;46447;-64
2022/03/20 03:12:21;;;;;;;27.65;15.45;;;1.00;44.60;;;;;;5094042;27;46404;-64
2022/03/20 03:17:31;;;;;;;32.13;16.63;;;1.00;44.70;;;;;;5089500;27;45894;-63
2022/03/20 03:19:58;;;;;;;28.97;16.10;;;1.00;44.50;;;;;;5083967;27;46354;-62
2022/03/20 03:22:27;;;;;;;29.67;16.45;;;1.00;44.40;;;;;;5067651;27;45911;-62
2022/03/20 03:24:56;;;;;;;29.35;15.57;;;0.90;44.50;;;;;;5083742;27;46457;-63
2022/03/20 03:27:22;;;;;;;35.10;15.82;;;1.00;44.90;;;;;;5083771;27;48859;-64
2022/03/20 03:29:48;;;;;;;31.27;16.30;;;1.00;44.90;;;;;;5094677;27;46315;-63
2022/03/20 03:32:14;;;;;;;30.40;16.17;;;1.00;44.90;;;;;;5083746;27;46321;-64
2022/03/20 03:37:24;;;;;;;31.85;16.80;;;0.90;44.80;;;;;;5091471;27;46348;-62
2022/03/20 03:39:50;;;;;;;32.60;16.53;;;0.90;46.00;;;;;;5092924;27;46188;-64
2022/03/20 03:42:16;;;;;;;30.20;15.70;;;0.90;44.80;;;;;;5082344;27;46425;-64
2022/03/20 03:44:41;;;;;;;34.28;16.13;;;0.80;44.70;;;;;;5084344;27;46407;-63
2022/03/20 03:47:07;;;;;;;30.43;16.10;;;0.80;44.70;;;;;;5082644;27;48005;-62
2022/03/20 03:49:34;;;;;;;29.63;16.80;;;0.80;44.70;;;;;;5093195;27;46376;-63
2022/03/20 03:52:01;;;;;;;25.65;14.80;;;0.60;44.60;;;;;;5081564;28;46395;-64
2022/03/20 03:54:28;;;;;;;30.40;16.15;;;0.40;44.40;;;;;;5068382;27;46328;-62
2022/03/20 03:56:54;;;;;;;29.65;15.55;;;0.30;44.30;;;;;;5083678;27;47764;-63
2022/03/20 03:59:20;;;;;;;28.37;15.20;;;0.20;44.40;;;;;;5081971;27;45834;-63
2022/03/20 04:01:46;;;;;;;32.55;14.82;;;0.00;44.60;;;;;;5082808;27;46502;-63
2022/03/20 04:04:11;;;;;;;28.13;16.27;;;-0.10;45.00;;;;;;5064606;27;46402;-63
2022/03/20 04:06:37;;;;;;;29.30;15.40;;;-0.20;45.10;;;;;;5094879;27;46744;-64
2022/03/20 04:09:04;;;;;;;29.87;16.60;;;-0.30;45.00;;;;;;5083508;27;46618;-63
2022/03/20 04:11:30;;;;;;;30.48;15.73;;;-0.30;44.90;;;;;;5082731;27;46511;-62
2022/03/20 04:13:56;;;;;;;25.87;15.30;;;-0.30;44.70;;;;;;5090144;27;46287;-64
2022/03/20 04:16:22;;;;;;;31.03;16.87;;;-0.30;44.70;;;;;;5081756;27;47909;-64
2022/03/20 04:18:48;;;;;;;35.23;17.23;;;-0.20;44.50;;;;;;5072543;27;46488;-64
2022/03/20 04:21:13;;;;;;;38.13;16.13;;;-0.20;45.20;;;;;;5087092;27;46353;-63
2022/03/20 04:23:44;;;;;;;32.40;16.30;;;-0.20;44.20;;;;;;5083698;27;46320;-64
2022/03/20 04:26:11;;;;;;;28.60;15.48;;;-0.20;43.90;;;;;;5083341;27;46479;-64
2022/03/20 04:28:37;;;;;;;31.20;16.50;;;-0.20;43.90;;;;;;5084178;27;46349;-64
2022/03/20 04:31:02;;;;;;;36.10;17.03;;;-0.20;44.20;;;;;;5081647;27;46312;-62
2022/03/20 04:33:31;;;;;;;32.80;17.00;;;-0.20;44.00;;;;;;5080236;27;46392;-63
2022/03/20 04:35:57;;;;;;;33.22;17.20;;;-0.30;44.10;;;;;;5082391;27;47823;-63
2022/03/20 04:38:23;;;;;;;31.20;17.40;;;-0.30;44.40;;;;;;5080474;27;46423;-64
2022/03/20 04:40:50;;;;;;;32.83;16.25;;;-0.30;44.20;;;;;;5081889;27;46440;-64
2022/03/20 04:43:17;;;;;;;37.78;17.17;;;-0.30;44.40;;;;;;5082937;27;47327;-64
2022/03/20 04:45:44;;;;;;;33.72;17.65;;;-0.30;44.60;;;;;;5081804;27;46389;-64
2022/03/20 04:59:09;;;;;;;37.35;18.35;;;-0.20;45.00;;;;;;5088401;27;46180;-64
2022/03/20 05:01:36;;;;;;;30.73;17.50;;;-0.20;44.80;;;;;;5081901;27;46460;-64
2022/03/20 05:04:02;;;;;;;33.92;17.17;;;-0.10;45.00;;;;;;5082226;27;46414;-65
2022/03/20 05:06:28;;;;;;;35.37;16.90;;;-0.10;45.00;;;;;;5081520;27;47873;-63
2022/03/20 05:13:19;;;;;;;33.97;16.50;;;-0.10;45.10;;;;;;5081069;27;46346;-64
2022/03/20 05:14:23;;;;;;;28.38;16.45;;;-0.10;45.10;;;;;;5089830;27;45911;-64
2022/03/20 05:16:50;;;;;;;34.50;18.10;;;-0.10;45.10;;;;;;5081229;27;48056;-64
2022/03/20 05:19:16;;;;;;;31.52;16.48;;;-0.10;45.10;;;;;;5076970;27;46307;-62
2022/03/20 05:21:42;;;;;;;33.88;17.17;;;-0.10;45.10;;;;;;5080651;27;46262;-63
2022/03/20 05:24:09;;;;;;;27.43;14.80;;;-0.10;45.30;;;;;;5082575;27;46299;-63
2022/03/20 05:26:34;;;;;;;31.50;17.25;;;-0.20;45.30;;;;;;5106717;27;47790;-63
2022/03/20 05:29:00;;;;;;;31.20;15.97;;;-0.20;45.50;;;;;;5071100;27;46353;-64
2022/03/20 05:31:26;;;;;;;28.23;14.80;;;-0.30;45.50;;;;;;5083423;27;46563;-64
2022/03/20 05:33:52;;;;;;;32.20;15.90;;;-0.30;45.50;;;;;;5080624;27;46347;-64
2022/03/20 05:36:18;;;;;;;29.30;15.47;;;-0.40;45.50;;;;;;5082046;27;47947;-63
2022/03/20 05:38:44;;;;;;;27.35;15.82;;;-0.40;45.60;;;;;;5089862;27;46481;-63
2022/03/20 05:43:54;;;;;;;30.52;15.60;;;-0.50;45.70;;;;;;5092192;27;46226;-64
2022/03/20 05:46:20;;;;;;;29.17;14.83;;;-0.50;46.10;;;;;;5097249;27;48801;-66
2022/03/20 05:48:46;;;;;;;26.60;15.00;;;-0.40;46.20;;;;;;5077981;27;46624;-64
2022/03/20 05:51:15;;;;;;;26.08;14.27;;;-0.20;46.10;;;;;;5082130;27;46578;-65
2022/03/20 05:53:41;;;;;;;28.98;15.85;;;-0.20;45.50;;;;;;5077705;27;46463;-64
2022/03/20 05:58:51;;;;;;;26.52;14.75;;;-0.30;45.50;;;;;;5095482;27;46758;-65
2022/03/20 06:01:17;;;;;;;30.63;16.87;;;-0.20;45.50;;;;;;5067347;27;46437;-63
2022/03/20 06:03:42;;;;;;;28.80;16.00;;;-0.20;45.80;;;;;;5082415;27;46521;-63
2022/03/20 06:06:08;;;;;;;31.57;16.23;;;0.00;46.30;;;;;;5079046;27;46357;-63
2022/03/20 06:08:35;;;;;;;32.00;16.00;;;0.20;46.30;;;;;;5083940;27;46439;-62
2022/03/20 06:11:02;;;;;;;34.03;16.42;;;0.50;45.40;;;;;;5108998;27;46877;-63
2022/03/20 06:13:28;;;;;;;24.50;14.82;;;0.70;44.60;;;;;;5079286;27;45959;-63
2022/03/20 06:15:57;;;;;;;29.23;15.70;;;0.70;44.60;;;;;;5083811;27;47913;-63
2022/03/20 06:18:25;;;;;;;29.20;16.00;;;0.80;44.70;;;;;;5108453;27;46441;-62
2022/03/20 06:20:52;;;;;;;29.92;16.75;;;1.00;45.00;;;;;;5084328;27;46398;-64
2022/03/20 06:23:17;;;;;;;30.30;17.50;;;1.10;45.00;;;;;;5085542;27;46312;-62
2022/03/20 06:25:43;;;;;;;30.80;15.93;;;1.20;45.10;;;;;;5081140;27;47868;-63
2022/03/20 06:28:09;;;;;;;33.77;17.63;;;1.30;45.20;;;;;;5077364;27;46612;-63
2022/03/20 06:30:35;;;;;;;53.37;27.00;;;1.40;45.20;;;;;;5083443;27;46484;-64
2022/03/20 06:33:04;;;;;;;32.03;17.77;;;1.60;44.90;;;;;;5077810;27;46474;-64
2022/03/20 06:35:31;;;;;;;29.73;16.23;;;1.80;44.60;;;;;;5087581;27;47906;-64
2022/03/20 06:37:57;;;;;;;32.15;18.30;;;2.00;44.30;;;;;;5077980;27;46318;-63
2022/03/20 06:40:23;;;;;;;30.50;17.70;;;2.20;44.10;;;;;;5071413;27;46300;-64
2022/03/20 06:42:49;;;;;;;37.57;18.97;;;2.30;43.90;;;;;;5107205;27;46095;-63
2022/03/20 06:45:15;;;;;;;32.08;18.02;;;2.50;43.70;;;;;;5079236;27;48793;-63
2022/03/20 06:47:42;;;;;;;33.10;17.80;;;2.70;43.70;;;;;;5097946;27;45927;-63
2022/03/20 06:50:10;;;;;;;30.42;16.05;;;2.90;43.30;;;;;;5088938;27;46414;-64
2022/03/20 06:52:40;;;;;;;38.60;19.13;;;3.00;43.40;;;;;;5085975;27;46737;-63
2022/03/20 06:55:07;;;;;;;36.38;16.52;;;3.10;43.30;;;;;;5109317;27;48059;-63
2022/03/20 06:57:33;;;;;;;30.00;16.52;;;3.30;43.20;;;;;;5083222;27;46496;-63
2022/03/20 07:00:01;;;;;;;29.27;16.33;;;3.50;43.10;;;;;;5083723;27;45905;-63
2022/03/20 07:02:27;;;;;;;32.75;16.80;;;3.60;43.10;;;;;;5082829;27;46565;-63
2022/03/20 07:04:53;;;;;;;30.47;15.93;;;3.60;43.10;;;;;;5087203;27;46292;-62
2022/03/20 07:07:20;;;;;;;27.58;15.60;;;3.80;44.20;;;;;;5069442;27;46617;-65
2022/03/20 07:09:46;;;;;;;32.70;17.20;;;4.00;42.90;;;;;;5084294;27;46406;-64
2022/03/20 07:12:13;;;;;;;32.38;16.98;;;4.10;42.90;;;;;;5085039;27;46358;-63
2022/03/20 07:14:39;;;;;;;26.25;16.00;;;4.00;42.80;;;;;;5081932;27;47904;-64
2022/03/20 07:17:11;;;;;;;32.50;16.08;;;4.20;43.00;;;;;;5083133;27;46420;-64
2022/03/20 07:19:38;;;;;;;27.70;16.50;;;4.20;43.10;;;;;;5083805;27;46382;-62
2022/03/20 07:22:05;;;;;;;24.40;15.53;;;4.30;43.20;;;;;;5094472;27;46267;-63
2022/03/20 07:24:33;;;;;;;27.83;16.00;;;4.50;42.80;;;;;;5084391;27;47984;-62
2022/03/20 07:29:44;;;;;;;27.58;16.38;;;4.70;42.60;;;;;;5095336;27;46372;-63
2022/03/20 07:32:10;;;;;;;34.20;18.93;;;4.80;42.20;;;;;;5084679;27;46471;-62
2022/03/20 07:34:39;;;;;;;31.90;17.97;;;5.00;42.20;;;;;;5081957;27;47808;-65
2022/03/20 07:37:07;;;;;;;28.75;16.88;;;5.10;42.10;;;;;;5079982;27;46369;-64
2022/03/20 07:39:35;;;;;;;27.10;15.38;;;5.20;41.80;;;;;;5084656;27;46391;-63
2022/03/20 07:42:00;;;;;;;26.77;15.43;;;5.30;41.80;;;;;;5079684;27;46334;-63
2022/03/20 07:44:29;;;;;;;28.80;16.37;;;5.50;41.40;;;;;;5072844;27;47520;-64
2022/03/20 07:46:55;;;;;;;26.05;16.15;;;5.60;41.10;;;;;;5078461;27;46430;-64
2022/03/20 07:49:21;;;;;;;27.13;15.60;;;5.80;41.00;;;;;;5078321;27;46359;-63
2022/03/20 07:51:51;;;;;;;27.97;15.77;;;5.90;40.80;;;;;;5073649;27;46647;-62
2022/03/20 07:54:16;;;;;;;28.33;15.80;;;6.00;40.30;;;;;;5075608;27;47853;-63
2022/03/20 07:56:42;;;;;;;27.17;16.17;;;6.10;40.10;;;;;;5081223;27;46508;-64
2022/03/20 07:59:09;;;;;;;30.13;15.57;;;6.20;39.80;;;;;;5082565;27;45879;-65
2022/03/20 08:01:36;;;;;;;30.17;15.30;;;6.30;39.80;;;;;;5086892;27;46357;-65
2022/03/20 08:04:03;;;;;;;28.13;16.47;;;6.40;39.40;;;;;;5109081;27;46258;-64
2022/03/20 08:06:29;;;;;;;28.27;16.30;;;6.50;39.40;;;;;;5075203;27;46366;-63
2022/03/20 08:08:59;;;;;;;28.30;16.50;;;6.70;39.40;;;;;;5080518;27;46296;-63
2022/03/20 08:11:28;;;;;;;27.90;16.87;;;6.80;39.30;;;;;;5083220;27;46298;-64
2022/03/20 08:13:54;;;;;;;26.53;15.80;;;7.00;39.10;;;;;;5091173;27;46756;-64
2022/03/20 08:16:22;;;;;;;27.23;16.20;;;7.00;38.90;;;;;;5082210;27;46352;-64
2022/03/20 08:18:48;;;;;;;27.40;16.87;;;7.30;38.60;;;;;;5083071;27;46472;-65
2022/03/20 08:21:15;;;;;;;27.93;16.10;;;7.30;38.40;;;;;;5081979;27;46496;-65
2022/03/20 08:23:41;;;;;;;26.60;15.40;;;7.10;38.50;;;;;;5081705;27;48115;-65
2022/03/20 08:26:08;;;;;;;30.73;16.47;;;7.00;38.80;;;;;;5082163;27;45883;-65
2022/03/20 08:28:39;;;;;;;30.57;16.90;;;7.20;38.30;;;;;;5082833;27;46296;-64
2022/03/20 08:31:08;;;;;;;27.37;16.70;;;7.30;38.30;;;;;;5083247;27;46331;-64
2022/03/20 08:33:35;;;;;;;25.27;15.43;;;7.30;38.10;;;;;;5083226;27;46468;-63
2022/03/20 08:36:01;;;;;;;27.83;16.10;;;7.50;37.20;;;;;;5093868;27;46278;-64
2022/03/20 08:38:27;;;;;;;25.57;16.37;;;7.60;37.30;;;;;;5081836;27;46521;-65
2022/03/20 08:40:54;;;;;;;27.07;16.00;;;7.80;37.50;;;;;;5073289;27;46498;-65
2022/03/20 08:43:21;;;;;;;28.90;18.00;;;7.90;37.60;;;;;;5089655;27;46542;-64
2022/03/20 08:45:47;;;;;;;28.03;16.30;;;8.20;36.90;;;;;;5089239;27;46264;-64
2022/03/20 08:48:13;;;;;;;33.90;17.20;;;8.30;36.30;;;;;;5076872;27;46394;-64
2022/03/20 08:50:39;;;;;;;28.20;16.20;;;8.30;36.40;;;;;;5083752;27;45917;-64
2022/03/20 08:53:05;;;;;;;30.53;16.43;;;8.30;36.30;;;;;;5082202;27;48865;-64
2022/03/20 08:55:34;;;;;;;27.83;17.27;;;8.40;36.30;;;;;;5081863;27;46341;-64
2022/03/20 08:58:01;;;;;;;28.90;15.40;;;8.60;36.10;;;;;;5084314;27;46345;-64
2022/03/20 09:00:26;;;;;;;26.47;16.33;;;8.50;35.90;;;;;;5075222;27;46490;-64
2022/03/20 09:02:53;;;;;;;31.70;17.23;;;8.50;35.60;;;;;;5082389;27;48183;-62
2022/03/20 09:05:19;;;;;;;28.10;16.50;;;8.60;35.40;;;;;;5083471;27;46601;-65
2022/03/20 09:07:47;;;;;;;26.87;16.27;;;8.60;35.40;;;;;;5077988;27;46381;-62
2022/03/20 09:10:15;;;;;;;33.17;18.00;;;8.50;35.50;;;;;;5073303;27;45983;-64
2022/03/20 09:12:44;;;;;;;29.67;17.63;;;8.50;35.50;;;;;;5072415;27;48780;-65
2022/03/20 09:15:15;;;;;;;29.13;16.50;;;8.70;35.00;;;;;;5078829;27;46407;-64
2022/03/20 09:20:27;;;;;;;30.03;17.07;;;8.80;34.30;;;;;;5088645;27;45782;-64
2022/03/20 09:22:53;;;;;;;27.80;17.10;;;8.90;34.40;;;;;;5076420;27;48674;-64
2022/03/20 09:25:19;;;;;;;27.90;15.63;;;9.00;33.90;;;;;;5082285;27;46345;-64
2022/03/20 09:27:48;;;;;;;28.87;17.10;;;9.20;33.70;;;;;;5082218;27;46312;-64
2022/03/20 09:30:16;;;;;;;33.20;17.30;;;9.40;33.20;;;;;;5092281;27;46275;-64
2022/03/20 09:32:44;;;;;;;26.57;16.50;;;9.30;32.90;;;;;;5087844;27;47271;-62
2022/03/20 09:35:11;;;;;;;28.30;17.07;;;9.30;33.10;;;;;;5098204;27;46405;-63
2022/03/20 09:37:38;;;;;;;30.33;17.67;;;9.30;32.40;;;;;;5081325;27;46499;-63
2022/03/20 09:40:05;;;;;;;29.00;17.70;;;9.40;33.00;;;;;;5097694;27;46452;-63
2022/03/20 09:42:31;;;;;;;39.03;17.03;;;9.60;32.80;;;;;;5082530;27;46507;-65
2022/03/20 09:44:56;;;;;;;27.83;16.77;;;9.60;32.30;;;;;;5081787;27;46351;-63
2022/03/20 09:47:25;;;;;;;28.30;17.37;;;9.80;32.10;;;;;;5080778;27;46652;-63
2022/03/20 09:49:55;;;;;;;33.37;19.13;;;9.80;32.10;;;;;;5081954;27;46426;-64
2022/03/20 09:52:22;;;;;;;28.10;16.90;;;9.80;32.00;;;;;;5081548;27;48003;-63
2022/03/20 09:54:48;;;;;;;27.73;17.50;;;9.90;32.10;;;;;;5070766;27;46484;-64
2022/03/20 09:57:15;;;;;;;28.50;18.20;;;10.10;30.70;;;;;;5081724;27;46334;-64
2022/03/20 09:59:41;;;;;;;27.43;17.10;;;10.30;30.20;;;;;;5080842;27;46398;-64
2022/03/20 10:02:11;;;;;;;26.53;16.90;;;10.40;29.70;;;;;;5081778;27;48795;-63
2022/03/20 10:04:59;;;;;;;26.30;16.50;;;10.20;29.70;;;;;;5089208;27;46524;-65
2022/03/20 10:07:28;;;;;;;25.90;15.90;;;10.20;29.60;;;;;;5072083;27;46371;-63
2022/03/20 10:10:10;;;;;;;27.13;16.77;;;10.30;28.90;;;;;;5081237;27;46527;-65
2022/03/20 10:12:38;;;;;;;29.70;17.30;;;10.40;29.10;;;;;;5069722;27;47868;-65
2022/03/20 10:15:09;;;;;;;29.13;17.23;;;10.60;28.90;;;;;;5080754;27;45933;-65
2022/03/20 10:17:36;;;;;;;31.20;17.17;;;10.70;28.70;;;;;;5081174;27;46425;-65
2022/03/20 10:20:20;;;;;;;34.87;18.00;;;10.90;28.60;;;;;;5095118;27;46368;-64
2022/03/20 10:22:46;;;;;;;32.07;17.33;;;10.80;28.00;;;;;;5088026;27;47750;-63
2022/03/20 10:25:12;;;;;;;27.13;16.53;;;10.90;27.40;;;;;;5079444;27;46457;-66
2022/03/20 10:27:53;;;;;;;29.37;18.70;;;11.00;27.20;;;;;;5080543;27;46400;-65
2022/03/20 10:30:19;;;;;;;34.00;17.07;;;11.20;27.20;;;;;;5081728;27;46315;-65
2022/03/20 10:32:49;;;;;;;28.73;18.10;;;11.20;26.90;;;;;;5082369;27;46420;-65
2022/03/20 10:35:17;;;;;;;29.77;17.57;;;11.20;26.90;;;;;;5084351;27;46366;-63
2022/03/20 10:37:44;;;;;;;28.70;17.90;;;11.30;27.10;;;;;;5085413;27;46378;-65
2022/03/20 10:40:12;;;;;;;29.80;17.13;;;11.20;27.20;;;;;;5082617;27;46376;-65
2022/03/20 10:42:37;;;;;;;30.60;17.97;;;11.20;27.30;;;;;;5076943;27;46746;-65
2022/03/20 10:45:07;;;;;;;29.50;18.17;;;11.20;27.30;;;;;;5084114;27;46713;-65
2022/03/20 10:47:33;;;;;;;29.63;18.10;;;11.40;27.10;;;;;;5092972;27;45873;-63
2022/03/20 10:50:07;;;;;;;27.63;17.97;;;11.60;27.20;;;;;;5081741;27;46355;-64
2022/03/20 10:52:36;;;;;;;30.57;18.17;;;11.60;27.30;;;;;;5083479;27;48141;-66
2022/03/20 10:55:08;;;;;;;31.10;17.80;;;11.90;27.50;;;;;;5083887;27;46379;-65
2022/03/20 10:57:35;;;;;;;27.00;16.70;;;12.00;27.40;;;;;;5083050;27;46420;-64
2022/03/20 11:00:08;;;;;;;30.43;18.00;;;11.90;27.40;;;;;;5083754;27;46398;-64
2022/03/20 11:02:37;;;;;;;29.70;18.03;;;11.90;26.60;;;;;;5083800;27;48810;-65
2022/03/20 11:05:04;;;;;;;30.33;18.27;;;11.80;26.20;;;;;;5090208;27;46460;-65
2022/03/20 11:07:30;;;;;;;29.83;16.97;;;11.90;26.10;;;;;;5082812;27;46486;-65
2022/03/20 11:09:56;;;;;;;30.10;17.53;;;11.90;26.00;;;;;;5084142;27;46544;-64
2022/03/20 11:12:33;;;;;;;31.73;17.70;;;11.90;25.40;;;;;;5083109;27;48697;-65
2022/03/20 11:15:03;;;;;;;28.97;18.57;;;12.00;25.50;;;;;;5095916;27;46271;-66
2022/03/20 11:17:50;;;;;;;29.47;18.20;;;12.30;25.60;;;;;;5095309;27;46375;-65
2022/03/20 11:20:17;;;;;;;27.20;17.30;;;12.30;25.00;;;;;;5090726;27;46407;-65
2022/03/20 11:22:53;;;;;;;26.07;16.40;;;12.10;24.70;;;;;;5081990;27;48304;-65
2022/03/20 11:25:24;;;;;;;30.30;16.47;;;12.20;24.80;;;;;;5082118;28;45825;-65
2022/03/20 11:28:07;;;;;;;29.10;17.90;;;12.20;24.20;;;;;;5076216;27;46273;-65
2022/03/20 11:30:33;;;;;;;28.43;17.33;;;12.30;24.20;;;;;;5073749;27;46649;-65
2022/03/20 11:33:01;;;;;;;27.23;15.87;;;12.20;24.20;;;;;;5083696;27;46592;-64
2022/03/20 11:35:30;;;;;;;27.93;15.93;;;12.30;23.80;;;;;;5094159;27;46369;-65
2022/03/20 11:38:11;;;;;;;31.73;18.00;;;12.40;23.80;;;;;;5083421;27;46413;-65
2022/03/20 11:40:41;;;;;;;26.77;17.60;;;12.50;23.80;;;;;;5083620;27;46275;-66
2022/03/20 11:43:22;;;;;;;25.03;16.33;;;12.60;23.40;;;;;;5085914;27;48629;-64
2022/03/20 11:46:30;;;;;;;24.17;16.13;;;12.70;23.00;;;;;;5074310;27;46296;-65
2022/03/20 11:49:14;;;;;;;23.03;16.10;;;12.70;22.70;;;;;;5076329;27;46482;-64
2022/03/20 11:51:53;;;;;;;29.10;16.87;;;12.80;23.20;;;;;;5084318;27;46659;-65
2022/03/20 11:54:19;;;;;;;28.23;15.90;;;12.90;23.10;;;;;;5072603;27;48737;-65
2022/03/20 11:56:45;;;;;;;28.10;16.80;;;12.90;22.80;;;;;;5083762;27;45814;-65
2022/03/20 11:59:45;;;;;;;26.70;16.90;;;13.00;22.70;;;;;;5083695;27;46379;-62
2022/03/20 12:02:16;;;;;;;26.20;15.73;;;13.00;22.20;;;;;;5076987;27;46347;-65
2022/03/20 12:05:08;;;;;;;26.50;15.10;;;13.00;21.80;;;;;;5080404;27;47852;-65
2022/03/20 12:07:58;;;;;;;28.03;15.43;;;13.00;20.90;;;;;;5083436;27;46431;-66
2022/03/20 12:10:37;;;;;;;30.63;16.20;;;13.00;20.70;;;;;;5074148;27;46470;-65
2022/03/20 12:13:25;;;;;;;25.10;16.27;;;13.00;21.10;;;;;;5081670;27;45962;-65
2022/03/20 12:15:53;;;;;;;26.27;14.60;;;13.00;20.90;;;;;;5069299;27;48393;-65
2022/03/20 12:18:19;;;;;;;25.17;14.77;;;13.20;21.20;;;;;;5081313;27;46326;-64
2022/03/20 12:20:59;;;;;;;21.10;14.13;;;13.20;21.20;;;;;;5097635;27;45892;-65
2022/03/20 12:23:40;;;;;;;24.43;14.80;;;13.40;20.50;;;;;;5082853;27;46387;-64
2022/03/20 12:26:26;;;;;;;23.37;12.90;;;13.40;20.20;;;;;;5083752;27;48707;-65
2022/03/20 12:28:52;;;;;;;25.40;14.40;;;13.50;20.60;;;;;;5074564;27;46425;-63
2022/03/20 12:31:27;;;;;;;23.90;14.10;;;13.60;20.00;;;;;;5082797;27;46484;-65
2022/03/20 12:34:21;;;;;;;26.13;16.03;;;13.60;19.30;;;;;;5094449;27;46338;-64
2022/03/20 12:36:47;;;;;;;31.47;14.93;;;13.70;19.60;;;;;;5069690;27;47919;-65
2022/03/20 12:39:12;;;;;;;25.53;15.10;;;13.80;19.30;;;;;;5082961;27;46326;-65
2022/03/20 12:41:38;;;;;;;25.70;13.90;;;13.70;19.40;;;;;;5081893;27;46088;-64
2022/03/20 12:44:07;;;;;;;27.57;14.77;;;13.70;19.10;;;;;;5071693;27;46672;-64
2022/03/20 12:46:41;;;;;;;22.47;14.10;;;13.60;18.70;;;;;;5083794;27;47894;-65
2022/03/20 12:49:15;;;;;;;24.20;14.40;;;13.60;18.50;;;;;;5083817;27;46406;-64
2022/03/20 12:51:42;;;;;;;23.43;14.87;;;13.50;19.00;;;;;;5072641;27;45918;-64
2022/03/20 12:54:15;;;;;;;25.10;14.97;;;13.60;19.30;;;;;;5080291;27;46307;-66
2022/03/20 12:56:55;;;;;;;22.93;13.97;;;13.70;19.20;;;;;;5087414;27;48123;-65
2022/03/20 12:59:25;;;;;;;25.93;12.93;;;13.70;18.80;;;;;;5073109;27;45752;-65
2022/03/20 13:01:52;;;;;;;23.20;13.90;;;13.80;19.00;;;;;;5106524;27;46628;-65
2022/03/20 13:04:19;;;;;;;24.90;16.00;;;13.80;18.20;;;;;;5082585;27;46402;-64
2022/03/20 13:06:46;;;;;;;21.80;13.40;;;13.70;17.90;;;;;;5081574;27;48551;-65
2022/03/20 13:09:13;;;;;;;23.00;14.37;;;13.70;18.30;;;;;;5082436;27;46358;-65
2022/03/20 13:11:52;;;;;;;23.87;15.00;;;13.80;18.40;;;;;;5082972;27;46601;-65